Time;durP1;ratioP1;P1;durP2;ratioP2;P2;SDS_P1;SDS_P2;PMS_P1;PMS_P2;Temp;Humidity;BMP_temperature;BMP_pressure;BME280_temperature;BME280_humidity;BME280_pressure;Samples;Min_cycle;Max_cycle;Signal;HPM_P1;HPM_P2
2023/01/03 00:01:42;;;;;;;14.97;11.37;;;;;;;8.18;100.00;101158.88;5094855;28;20479;-59
2023/01/03 00:04:11;;;;;;;15.10;10.80;;;;;;;8.15;100.00;101157.25;5087722;28;20435;-59
2023/01/03 00:06:40;;;;;;;16.40;12.07;;;;;;;8.19;100.00;101155.25;5082521;28;21262;-59
2023/01/03 00:09:10;;;;;;;15.37;11.17;;;;;;;8.07;100.00;101148.94;5085163;28;20495;-59
2023/01/03 00:14:27;;;;;;;16.70;11.97;;;;;;;8.00;100.00;101153.84;5085242;28;20443;-59
2023/01/03 00:16:56;;;;;;;16.70;11.60;;;;;;;7.87;100.00;101148.44;5092678;28;20502;-63
2023/01/03 00:19:25;;;;;;;18.53;12.30;;;;;;;7.69;100.00;101152.31;5080080;28;20513;-59
2023/01/03 00:21:52;;;;;;;14.87;11.13;;;;;;;7.76;100.00;101152.75;5081982;28;20472;-59
2023/01/03 00:24:19;;;;;;;17.27;12.40;;;;;;;7.62;100.00;101151.00;5079192;28;21109;-59
2023/01/03 00:26:45;;;;;;;19.20;12.73;;;;;;;7.55;100.00;101153.19;5079866;28;20472;-60
2023/01/03 00:29:13;;;;;;;17.30;12.53;;;;;;;7.56;100.00;101152.25;5080471;28;20524;-59
2023/01/03 00:31:40;;;;;;;15.47;11.30;;;;;;;7.58;100.00;101150.34;5078671;28;20480;-59
2023/01/03 00:34:07;;;;;;;15.63;12.10;;;;;;;7.67;100.00;101152.44;5079894;28;20452;-59
2023/01/03 00:36:36;;;;;;;17.20;12.87;;;;;;;7.73;100.00;101159.16;5080081;28;20480;-59
2023/01/03 00:39:03;;;;;;;17.90;13.33;;;;;;;7.84;100.00;101155.78;5080718;28;20450;-61
2023/01/03 00:41:30;;;;;;;17.33;11.67;;;;;;;7.87;100.00;101159.09;5059938;28;20804;-61
2023/01/03 00:43:57;;;;;;;20.97;13.00;;;;;;;7.88;100.00;101165.25;5058287;28;20445;-61
2023/01/03 00:46:24;;;;;;;19.47;13.23;;;;;;;8.05;100.00;101169.47;5060137;28;20476;-61
2023/01/03 00:48:51;;;;;;;18.50;13.87;;;;;;;7.95;100.00;101176.38;5057044;28;20470;-61
2023/01/03 00:51:20;;;;;;;17.27;12.63;;;;;;;7.97;100.00;101183.31;5058278;28;20730;-61
2023/01/03 00:53:51;;;;;;;25.30;14.07;;;;;;;7.80;100.00;101184.41;5058317;28;20519;-61
2023/01/03 00:56:19;;;;;;;22.63;14.10;;;;;;;7.89;100.00;101183.81;5054734;28;20480;-60
2023/01/03 00:58:46;;;;;;;22.57;13.63;;;;;;;7.98;100.00;101194.81;5066378;28;20502;-61
2023/01/03 01:01:15;;;;;;;19.30;14.57;;;;;;;7.87;100.00;101198.19;5062974;28;21046;-61
2023/01/03 01:03:44;;;;;;;22.37;14.17;;;;;;;7.60;100.00;101198.16;5061664;28;20493;-61
2023/01/03 01:06:13;;;;;;;21.83;15.03;;;;;;;7.57;100.00;101198.34;5076525;28;20481;-61
2023/01/03 01:08:39;;;;;;;21.80;14.73;;;;;;;7.34;100.00;101197.97;5069181;28;20491;-61
2023/01/03 01:11:08;;;;;;;18.53;13.07;;;;;;;7.37;100.00;101196.97;5076805;28;20475;-61
2023/01/03 01:13:35;;;;;;;18.03;13.63;;;;;;;7.49;100.00;101210.31;5075105;28;20433;-60
2023/01/03 01:16:03;;;;;;;18.20;14.43;;;;;;;7.59;100.00;101207.09;5066704;28;20934;-61
2023/01/03 01:18:30;;;;;;;18.70;12.93;;;;;;;7.56;100.00;101201.97;5064867;28;20433;-61
2023/01/03 01:20:57;;;;;;;21.70;12.80;;;;;;;7.39;100.00;101201.22;5082358;28;20500;-59
2023/01/03 01:23:23;;;;;;;19.97;14.47;;;;;;;7.35;100.00;101208.53;5065135;28;20452;-59
2023/01/03 01:25:50;;;;;;;21.73;14.80;;;;;;;7.23;100.00;101211.97;5063877;28;20485;-59
2023/01/03 01:28:18;;;;;;;20.70;15.77;;;;;;;7.30;100.00;101201.81;5062248;28;20477;-59
2023/01/03 01:30:45;;;;;;;25.30;14.07;;;;;;;7.24;100.00;101205.72;5073894;28;20472;-59
2023/01/03 01:33:12;;;;;;;21.67;15.43;;;;;;;7.24;100.00;101216.34;5071673;28;20445;-59
2023/01/03 01:35:38;;;;;;;17.60;14.23;;;;;;;7.22;100.00;101220.91;5071549;28;20475;-60
2023/01/03 01:38:05;;;;;;;20.83;13.93;;;;;;;7.06;100.00;101217.47;5077106;28;20985;-59
2023/01/03 01:40:32;;;;;;;18.20;13.63;;;;;;;7.04;100.00;101222.88;5072462;28;21036;-59
2023/01/03 01:45:47;;;;;;;21.97;15.40;;;;;;;7.06;100.00;101228.94;5062448;28;20479;-59
2023/01/03 01:48:15;;;;;;;26.07;17.73;;;;;;;7.07;100.00;101222.69;5072563;28;20472;-59
2023/01/03 01:50:47;;;;;;;26.10;17.67;;;;;;;7.18;100.00;101231.81;5080568;28;20484;-59
2023/01/03 01:53:17;;;;;;;25.20;18.37;;;;;;;7.30;100.00;101237.22;5065377;28;20453;-60
2023/01/03 01:55:47;;;;;;;29.73;17.40;;;;;;;7.34;100.00;101225.47;5069803;28;20476;-60
2023/01/03 01:58:14;;;;;;;26.57;19.90;;;;;;;7.28;100.00;101223.19;5074218;28;20449;-60
2023/01/03 02:00:42;;;;;;;30.13;19.93;;;;;;;7.38;100.00;101225.25;5062641;28;20481;-60
2023/01/03 02:03:11;;;;;;;28.10;20.10;;;;;;;7.34;100.00;101235.22;5066906;28;20453;-60
2023/01/03 02:05:42;;;;;;;32.10;19.60;;;;;;;7.32;100.00;101224.69;5062099;28;20508;-60
2023/01/03 02:08:09;;;;;;;33.30;21.87;;;;;;;7.16;100.00;101224.78;5079338;28;20516;-60
2023/01/03 02:10:51;;;;;;;30.93;20.30;;;;;;;7.29;100.00;101240.84;5069013;28;20489;-59
2023/01/03 02:13:23;;;;;;;29.83;20.00;;;;;;;7.34;100.00;101237.88;5067411;28;20469;-59
2023/01/03 02:16:03;;;;;;;33.00;21.73;;;;;;;7.38;100.00;101239.44;5062372;28;20479;-59
2023/01/03 02:18:43;;;;;;;29.97;20.33;;;;;;;7.31;100.00;101244.28;5065133;28;20807;-59
2023/01/03 02:21:42;;;;;;;33.70;20.03;;;;;;;7.25;100.00;101244.63;5061525;28;20487;-59
2023/01/03 02:24:33;;;;;;;34.87;20.63;;;;;;;7.32;100.00;101245.13;5070322;28;20494;-59
2023/01/03 02:27:03;;;;;;;33.63;21.27;;;;;;;7.40;100.00;101248.16;5066731;28;20485;-59
2023/01/03 02:30:21;;;;;;;30.00;21.00;;;;;;;7.50;100.00;101246.63;5061584;28;20474;-59
2023/01/03 02:32:52;;;;;;;28.27;20.20;;;;;;;7.32;100.00;101253.94;5054392;28;20473;-59
2023/01/03 02:35:23;;;;;;;31.93;20.27;;;;;;;7.42;100.00;101253.41;5063122;28;20481;-59
2023/01/03 02:37:55;;;;;;;26.40;18.50;;;;;;;7.47;100.00;101256.63;5063200;28;20462;-60
2023/01/03 02:40:27;;;;;;;32.53;19.83;;;;;;;7.29;100.00;101248.84;5081902;28;20490;-59
2023/01/03 02:43:00;;;;;;;30.93;18.53;;;;;;;7.50;100.00;101257.28;5068707;28;20908;-59
2023/01/03 02:45:49;;;;;;;26.67;18.70;;;;;;;7.50;100.00;101261.75;5089033;28;20553;-59
2023/01/03 02:48:22;;;;;;;31.60;19.57;;;;;;;7.48;100.00;101263.63;5102889;28;20475;-59
2023/01/03 02:50:51;;;;;;;29.80;18.80;;;;;;;7.53;100.00;101265.09;5081029;28;20491;-59
2023/01/03 02:53:21;;;;;;;27.70;18.30;;;;;;;7.45;100.00;101261.19;5094969;28;20480;-59
2023/01/03 02:55:49;;;;;;;26.23;17.40;;;;;;;7.33;100.00;101265.47;5091126;28;20527;-59
2023/01/03 02:58:18;;;;;;;25.63;17.70;;;;;;;7.42;100.00;101266.69;5089728;28;20433;-59
2023/01/03 03:00:48;;;;;;;30.63;19.10;;;;;;;7.44;100.00;101262.13;5086711;28;20476;-59
2023/01/03 03:03:19;;;;;;;23.20;17.23;;;;;;;7.32;100.00;101275.22;5081118;28;20516;-59
2023/01/03 03:05:49;;;;;;;24.93;17.53;;;;;;;7.35;100.00;101274.19;5090581;28;20471;-59
2023/01/03 03:08:15;;;;;;;26.17;17.60;;;;;;;7.24;100.00;101276.66;5081338;28;20480;-59
2023/01/03 03:13:31;;;;;;;29.23;19.03;;;;;;;7.19;100.00;101273.41;5097191;28;20482;-59
2023/01/03 03:16:01;;;;;;;22.93;16.97;;;;;;;7.25;100.00;101273.03;5084526;28;20471;-59
2023/01/03 03:18:33;;;;;;;26.43;17.47;;;;;;;7.04;100.00;101280.53;5085426;28;20447;-59
2023/01/03 03:26:33;;;;;;;24.97;16.60;;;;;;;7.03;100.00;101276.16;5093025;28;20482;-59
2023/01/03 03:29:02;;;;;;;23.53;14.53;;;;;;;7.07;100.00;101275.03;5090925;28;20472;-59
2023/01/03 03:31:32;;;;;;;24.03;14.63;;;;;;;7.17;100.00;101276.19;5086901;28;20804;-59
2023/01/03 03:34:06;;;;;;;19.73;12.90;;;;;;;6.94;100.00;101266.91;5084780;28;20447;-59
2023/01/03 03:36:39;;;;;;;17.47;12.90;;;;;;;6.98;100.00;101268.47;5081020;28;20747;-59
2023/01/03 03:44:58;;;;;;;17.13;12.57;;;;;;;7.05;100.00;101272.47;5097343;28;20521;-59
2023/01/03 03:45:01;;;;;;;18.80;11.13;;;;;;;7.04;100.00;101275.22;5084263;28;20447;-59
2023/01/03 03:47:34;;;;;;;17.13;11.60;;;;;;;6.95;100.00;101277.47;5080140;28;20488;-59
2023/01/03 03:50:05;;;;;;;17.20;11.70;;;;;;;7.08;100.00;101266.97;5099038;28;20510;-59
2023/01/03 03:52:33;;;;;;;17.03;12.03;;;;;;;7.11;100.00;101266.75;5086488;28;20483;-59
2023/01/03 03:55:04;;;;;;;17.93;11.57;;;;;;;7.04;100.00;101277.88;5082266;28;20490;-59
2023/01/03 03:57:33;;;;;;;14.57;10.10;;;;;;;7.01;100.00;101286.03;5079905;28;20468;-59
2023/01/03 04:00:06;;;;;;;16.00;9.80;;;;;;;7.02;100.00;101274.47;5084480;28;20452;-59
2023/01/03 04:02:33;;;;;;;16.63;9.40;;;;;;;6.82;100.00;101280.94;5083615;28;21212;-59
2023/01/03 04:05:04;;;;;;;12.63;9.57;;;;;;;6.86;100.00;101282.50;5094825;28;20444;-60
2023/01/03 04:07:31;;;;;;;19.47;11.27;;;;;;;6.74;100.00;101287.56;5093246;28;20555;-60
2023/01/03 04:09:58;;;;;;;15.77;11.40;;;;;;;6.82;100.00;101294.25;5090358;28;20487;-59
2023/01/03 04:12:25;;;;;;;17.00;11.57;;;;;;;6.92;100.00;101293.59;5095270;28;20475;-59
2023/01/03 04:14:52;;;;;;;19.60;12.60;;;;;;;6.97;100.00;101299.50;5081367;28;20432;-59
2023/01/03 04:17:19;;;;;;;19.93;14.13;;;;;;;7.00;100.00;101293.16;5088393;28;21128;-59
2023/01/03 04:19:46;;;;;;;22.60;14.60;;;;;;;6.87;100.00;101300.13;5087375;28;20452;-59
2023/01/03 04:22:14;;;;;;;23.57;16.40;;;;;;;6.95;100.00;101303.22;5096952;28;20475;-59
2023/01/03 04:24:41;;;;;;;25.33;19.50;;;;;;;6.89;100.00;101311.53;5083544;28;20441;-59
2023/01/03 04:27:08;;;;;;;29.83;18.37;;;;;;;7.02;100.00;101304.56;5083161;28;20483;-59
2023/01/03 04:29:35;;;;;;;28.37;19.63;;;;;;;6.92;100.00;101306.88;5081019;28;20495;-59
2023/01/03 04:32:01;;;;;;;35.30;20.77;;;;;;;6.97;100.00;101302.16;5092828;28;20507;-59
2023/01/03 04:34:28;;;;;;;28.80;20.60;;;;;;;6.88;100.00;101305.38;5082755;28;20835;-59
2023/01/03 04:36:55;;;;;;;27.97;20.67;;;;;;;6.83;100.00;101295.97;5091463;28;20499;-60
2023/01/03 04:39:23;;;;;;;31.70;21.20;;;;;;;6.70;100.00;101299.34;5091292;28;20498;-60
2023/01/03 04:41:50;;;;;;;28.67;20.57;;;;;;;6.75;100.00;101297.28;5081596;28;20480;-60
2023/01/03 04:44:15;;;;;;;32.73;22.83;;;;;;;6.82;100.00;101299.56;5080077;28;20480;-60
2023/01/03 04:46:42;;;;;;;33.20;20.77;;;;;;;6.83;100.00;101307.44;5079665;28;20510;-60
2023/01/03 04:49:10;;;;;;;34.83;23.20;;;;;;;6.77;100.00;101305.13;5092090;28;20206;-59
2023/01/03 04:51:37;;;;;;;29.70;20.30;;;;;;;6.82;100.00;101310.19;5089420;28;20972;-59
2023/01/03 04:54:05;;;;;;;35.10;22.97;;;;;;;7.05;100.00;101309.69;5091117;28;20506;-60
2023/01/03 04:56:34;;;;;;;32.53;22.77;;;;;;;7.06;100.00;101310.53;5085515;28;20515;-60
2023/01/03 04:59:01;;;;;;;35.37;23.70;;;;;;;6.96;100.00;101312.88;5088131;28;20447;-59
2023/01/03 05:01:28;;;;;;;35.33;23.50;;;;;;;6.90;100.00;101326.56;5099471;28;20484;-59
2023/01/03 05:03:57;;;;;;;36.37;24.47;;;;;;;6.77;100.00;101323.75;5096777;28;20472;-59
2023/01/03 05:06:24;;;;;;;41.53;26.67;;;;;;;6.87;100.00;101313.44;5085009;28;20487;-59
2023/01/03 05:08:51;;;;;;;37.87;23.90;;;;;;;6.94;100.00;101320.09;5083304;28;20491;-59
2023/01/03 05:11:18;;;;;;;41.37;25.67;;;;;;;6.87;100.00;101321.41;5096731;28;20494;-59
2023/01/03 05:13:46;;;;;;;38.33;25.23;;;;;;;6.89;100.00;101316.84;5087108;28;20561;-59
2023/01/03 05:16:14;;;;;;;38.33;26.60;;;;;;;6.83;100.00;101319.88;5083745;28;20479;-59
2023/01/03 05:18:41;;;;;;;39.90;25.43;;;;;;;6.84;100.00;101311.81;5083129;28;20441;-60
2023/01/03 05:26:41;;;;;;;36.07;24.70;;;;;;;6.52;100.00;101326.97;5071388;28;20487;-59
2023/01/03 05:29:10;;;;;;;36.03;25.20;;;;;;;6.58;100.00;101326.63;5094775;28;20472;-59
2023/01/03 05:31:37;;;;;;;34.30;24.50;;;;;;;6.54;100.00;101330.41;5084876;28;20537;-59
2023/01/03 05:34:03;;;;;;;36.93;24.73;;;;;;;6.68;100.00;101329.59;5091337;28;20475;-59
2023/01/03 05:36:30;;;;;;;37.03;24.83;;;;;;;6.58;100.00;101334.59;5098143;28;20533;-59
2023/01/03 05:38:57;;;;;;;37.00;24.10;;;;;;;6.71;100.00;101340.91;5090915;28;20458;-59
2023/01/03 05:44:09;;;;;;;35.20;22.47;;;;;;;6.40;100.00;101331.19;5082782;28;20487;-59
2023/01/03 05:46:36;;;;;;;36.37;22.93;;;;;;;6.36;100.00;101338.47;5082971;28;20899;-59
2023/01/03 05:49:02;;;;;;;34.57;22.60;;;;;;;6.15;100.00;101340.53;5083509;28;20529;-59
2023/01/03 05:51:29;;;;;;;32.57;22.40;;;;;;;6.28;100.00;101350.47;5083114;28;20510;-59
2023/01/03 05:53:56;;;;;;;32.73;22.00;;;;;;;6.26;100.00;101355.84;5085163;28;21877;-59
2023/01/03 05:56:23;;;;;;;39.53;22.50;;;;;;;6.38;100.00;101360.47;5094613;28;20542;-59
2023/01/03 05:58:50;;;;;;;36.60;23.83;;;;;;;6.43;100.00;101362.88;5096384;28;20514;-59
2023/01/03 06:01:18;;;;;;;34.03;22.50;;;;;;;6.33;100.00;101365.19;5083671;28;20538;-59
2023/01/03 06:03:46;;;;;;;31.80;22.03;;;;;;;6.47;100.00;101372.38;5081251;28;20457;-59
2023/01/03 06:06:14;;;;;;;38.87;23.80;;;;;;;6.43;100.00;101372.66;5089564;28;20476;-60
2023/01/03 06:08:41;;;;;;;29.30;21.03;;;;;;;6.47;100.00;101385.66;5087645;28;20485;-60
2023/01/03 06:11:09;;;;;;;32.47;21.77;;;;;;;6.38;100.00;101375.56;5095571;28;20480;-58
2023/01/03 06:13:35;;;;;;;36.33;22.37;;;;;;;6.23;100.00;101379.91;5101007;28;20459;-57
2023/01/03 06:18:49;;;;;;;32.33;21.70;;;;;;;6.25;100.00;101374.53;5086543;28;20434;-58
2023/01/03 06:21:16;;;;;;;35.13;22.73;;;;;;;6.17;100.00;101372.31;5102308;28;20994;-60
2023/01/03 06:23:46;;;;;;;31.43;22.40;;;;;;;6.20;100.00;101375.66;5100863;28;20475;-60
2023/01/03 06:26:14;;;;;;;33.07;22.50;;;;;;;6.26;100.00;101384.22;5083452;28;20480;-60
2023/01/03 06:28:40;;;;;;;35.53;22.23;;;;;;;6.27;100.00;101375.28;5103427;28;20481;-60
2023/01/03 06:31:07;;;;;;;42.03;24.23;;;;;;;6.29;100.00;101384.06;5101628;28;20549;-59
2023/01/03 06:33:34;;;;;;;37.03;23.83;;;;;;;6.29;100.00;101376.09;5090162;28;20476;-59
2023/01/03 06:36:03;;;;;;;42.23;25.83;;;;;;;6.35;100.00;101381.94;5100651;28;20498;-59
2023/01/03 06:38:30;;;;;;;37.03;26.00;;;;;;;6.45;100.00;101387.56;5090465;28;20553;-59
2023/01/03 06:40:57;;;;;;;46.03;27.27;;;;;;;6.44;100.00;101383.22;5101727;28;20983;-59
2023/01/03 06:43:24;;;;;;;43.97;28.20;;;;;;;6.44;100.00;101390.31;5101467;28;20485;-59
2023/01/03 06:54:20;;;;;;;41.57;23.77;;;;;;;5.95;100.00;101392.00;5019995;28;20462;-59
2023/01/03 06:56:46;;;;;;;40.97;23.93;;;;;;;6.17;100.00;101393.56;5068934;28;20496;-59
2023/01/03 06:59:13;;;;;;;40.23;23.87;;;;;;;6.27;100.00;101392.09;5081303;28;20464;-59
2023/01/03 07:01:40;;;;;;;35.90;23.07;;;;;;;6.21;100.00;101395.97;5084407;28;20505;-59
2023/01/03 07:04:06;;;;;;;31.60;21.70;;;;;;;6.14;100.00;101405.19;5088150;28;20520;-60
2023/01/03 07:06:34;;;;;;;36.07;23.43;;;;;;;6.04;100.00;101401.31;5081111;28;20471;-59
2023/01/03 07:09:01;;;;;;;31.47;21.00;;;;;;;5.94;100.00;101397.44;5096436;28;20502;-59
2023/01/03 07:11:28;;;;;;;34.03;20.67;;;;;;;5.78;100.00;101398.25;5088108;28;20502;-59
2023/01/03 07:14:01;;;;;;;32.20;21.80;;;;;;;5.74;100.00;101399.31;5101969;28;20505;-60
2023/01/03 07:16:29;;;;;;;34.20;20.93;;;;;;;5.76;100.00;101404.56;5101219;28;20479;-60
2023/01/03 07:18:56;;;;;;;35.57;21.90;;;;;;;5.60;100.00;101407.16;5101316;28;20444;-60
2023/01/03 07:21:24;;;;;;;33.77;21.10;;;;;;;5.44;100.00;101405.31;5101102;28;20534;-60
2023/01/03 07:23:52;;;;;;;38.10;21.13;;;;;;;5.43;100.00;101405.38;5098018;28;20467;-59
2023/01/03 07:26:19;;;;;;;37.47;23.57;;;;;;;5.43;100.00;101400.97;5069719;28;20477;-60
2023/01/03 07:28:46;;;;;;;34.33;20.63;;;;;;;5.28;100.00;101418.50;5062958;28;20434;-60
2023/01/03 07:31:12;;;;;;;37.43;22.27;;;;;;;5.34;100.00;101405.88;5093721;28;20512;-76
2023/01/03 07:33:39;;;;;;;35.83;22.33;;;;;;;5.17;100.00;101412.88;5082849;28;20459;-60
2023/01/03 07:36:08;;;;;;;31.87;21.33;;;;;;;5.27;100.00;101403.50;5077948;28;20542;-61
2023/01/03 07:38:35;;;;;;;33.73;19.77;;;;;;;5.29;100.00;101406.09;5081258;28;20471;-62
2023/01/03 07:41:04;;;;;;;31.00;19.87;;;;;;;5.25;100.00;101402.72;5081835;28;20502;-62
2023/01/03 07:43:36;;;;;;;37.87;23.63;;;;;;;5.34;100.00;101411.16;5083218;28;20960;-62
2023/01/03 07:46:06;;;;;;;32.83;21.30;;;;;;;5.26;100.00;101401.81;5100580;28;20479;-61
2023/01/03 07:48:33;;;;;;;34.20;20.97;;;;;;;5.31;100.00;101408.66;5083353;28;20443;-61
2023/01/03 07:51:00;;;;;;;33.70;20.50;;;;;;;5.33;100.00;101412.09;5087593;28;20514;-62
2023/01/03 07:53:26;;;;;;;32.27;20.50;;;;;;;5.36;100.00;101417.25;5078525;28;20507;-62
2023/01/03 07:55:53;;;;;;;32.23;19.93;;;;;;;5.20;100.00;101420.66;5078174;28;20488;-61
2023/01/03 07:58:21;;;;;;;30.00;19.43;;;;;;;5.27;100.00;101418.56;5080124;28;20440;-62
2023/01/03 08:00:48;;;;;;;34.23;21.27;;;;;;;5.27;100.00;101423.88;5077640;28;20492;-62
2023/01/03 08:03:15;;;;;;;36.57;18.60;;;;;;;5.25;100.00;101423.94;5080147;28;20474;-62
2023/01/03 08:05:41;;;;;;;29.97;19.93;;;;;;;5.33;100.00;101433.31;5080104;28;20495;-61
2023/01/03 08:08:08;;;;;;;33.10;19.87;;;;;;;5.36;100.00;101434.00;5080499;28;20452;-61
2023/01/03 08:13:21;;;;;;;28.17;17.60;;;;;;;5.80;100.00;101441.47;5077295;28;20515;-60
2023/01/03 08:15:51;;;;;;;30.13;17.70;;;;;;;6.16;100.00;101436.97;5079007;28;20475;-60
2023/01/03 08:18:19;;;;;;;28.00;18.93;;;;;;;6.18;100.00;101440.38;5078436;28;20448;-60
2023/01/03 08:20:46;;;;;;;34.97;21.20;;;;;;;6.40;100.00;101440.09;5077682;28;20467;-68
2023/01/03 08:23:13;;;;;;;31.53;19.80;;;;;;;6.43;100.00;101439.06;5077962;28;20478;-69
2023/01/03 08:25:40;;;;;;;31.93;18.57;;;;;;;6.47;100.00;101432.63;5079181;28;20479;-69
2023/01/03 08:28:08;;;;;;;33.10;19.43;;;;;;;6.45;100.00;101431.88;5082075;28;20464;-68
2023/01/03 08:30:38;;;;;;;30.17;18.87;;;;;;;6.35;100.00;101435.03;5083173;28;20480;-69
2023/01/03 08:33:07;;;;;;;28.20;18.80;;;;;;;6.47;100.00;101448.59;5082896;28;20452;-69
2023/01/03 08:35:36;;;;;;;24.50;17.20;;;;;;;6.72;100.00;101443.63;5081219;28;20472;-69
2023/01/03 08:38:04;;;;;;;23.93;18.00;;;;;;;6.71;100.00;101441.03;5083141;28;20456;-69
2023/01/03 08:40:32;;;;;;;31.80;19.43;;;;;;;6.70;100.00;101445.50;5082384;28;20481;-69
2023/01/03 08:42:59;;;;;;;29.63;16.83;;;;;;;6.95;100.00;101450.28;5079041;28;20551;-69
2023/01/03 08:45:26;;;;;;;24.83;18.10;;;;;;;7.09;100.00;101443.31;5083388;28;20428;-69
2023/01/03 08:47:57;;;;;;;23.57;16.23;;;;;;;7.10;100.00;101448.56;5084297;28;20456;-69
2023/01/03 08:50:25;;;;;;;29.33;17.47;;;;;;;7.16;100.00;101447.34;5083484;28;20494;-70
2023/01/03 08:52:51;;;;;;;23.47;16.53;;;;;;;7.10;99.87;101451.22;5082454;28;20460;-70
2023/01/03 08:55:18;;;;;;;29.57;15.97;;;;;;;7.22;99.81;101446.13;5094335;28;20463;-70
2023/01/03 08:57:45;;;;;;;23.43;15.10;;;;;;;7.65;98.37;101451.56;5088277;28;20479;-69
2023/01/03 09:00:13;;;;;;;26.90;15.20;;;;;;;7.73;96.95;101444.81;5087606;28;20470;-69
2023/01/03 09:02:39;;;;;;;27.00;15.43;;;;;;;8.25;93.88;101451.41;5080296;28;20466;-69
2023/01/03 09:05:09;;;;;;;20.53;14.70;;;;;;;9.22;88.41;101447.88;5080172;28;20456;-70
2023/01/03 09:07:36;;;;;;;20.80;13.77;;;;;;;9.96;84.11;101439.31;5082866;28;20461;-70
2023/01/03 09:10:02;;;;;;;16.63;13.53;;;;;;;10.53;78.23;101443.31;5091537;28;20522;-70
2023/01/03 09:12:29;;;;;;;15.60;11.47;;;;;;;10.57;80.06;101438.59;5079916;28;20476;-70
2023/01/03 09:14:57;;;;;;;14.03;11.00;;;;;;;11.07;77.10;101442.06;5082830;28;20486;-70
2023/01/03 09:17:24;;;;;;;16.20;10.83;;;;;;;11.53;74.17;101433.22;5082100;28;20587;-69
2023/01/03 09:19:51;;;;;;;14.20;10.90;;;;;;;12.46;67.94;101431.38;5081786;28;20449;-69
2023/01/03 09:22:19;;;;;;;12.90;10.53;;;;;;;11.96;68.49;101429.03;5082751;28;20481;-68
2023/01/03 09:24:46;;;;;;;15.03;10.90;;;;;;;11.67;69.82;101434.84;5082646;28;20453;-68
2023/01/03 09:27:12;;;;;;;10.30;9.03;;;;;;;11.37;70.94;101436.22;5081121;28;20509;-68
2023/01/03 09:29:39;;;;;;;11.03;9.33;;;;;;;11.45;70.79;101436.47;5081793;28;20452;-68
2023/01/03 09:32:06;;;;;;;12.00;9.40;;;;;;;12.04;68.90;101442.72;5081396;28;20494;-66
2023/01/03 09:34:32;;;;;;;16.37;9.37;;;;;;;12.77;64.89;101449.34;5080957;28;20444;-66
2023/01/03 09:36:59;;;;;;;13.27;9.23;;;;;;;12.76;63.70;101439.59;5081091;28;20544;-60
2023/01/03 09:39:27;;;;;;;10.13;8.60;;;;;;;13.08;61.15;101459.41;5081943;28;20515;-60
2023/01/03 09:44:35;;;;;;;11.20;8.70;;;;;;;13.84;59.09;101444.03;5078112;28;20456;-59
2023/01/03 09:47:03;;;;;;;13.43;9.53;;;;;;;13.61;58.51;101437.97;5080063;28;20513;-59
2023/01/03 09:49:29;;;;;;;14.67;9.93;;;;;;;13.53;57.90;101435.91;5078926;28;20528;-60
2023/01/03 10:06:13;;;;;;;7.93;7.00;;;;;;;13.49;57.34;101426.41;5080227;28;20504;-65
2023/01/03 10:08:48;;;;;;;7.20;6.50;;;;;;;13.94;55.68;101426.13;5075431;28;20973;-66
2023/01/03 10:11:21;;;;;;;8.70;6.53;;;;;;;13.53;57.57;101433.22;5075855;28;20476;-65
2023/01/03 10:13:59;;;;;;;9.50;6.30;;;;;;;13.98;55.58;101426.69;5081924;28;20444;-66
2023/01/03 10:16:39;;;;;;;11.07;6.47;;;;;;;13.97;56.16;101432.22;5080065;28;20500;-66
2023/01/03 10:19:25;;;;;;;9.60;6.50;;;;;;;14.52;54.61;101426.50;5081303;28;20480;-65
2023/01/03 10:21:58;;;;;;;9.67;5.90;;;;;;;14.34;54.09;101427.16;5080054;28;20979;-66
2023/01/03 10:24:26;;;;;;;10.40;6.00;;;;;;;14.12;54.81;101422.81;5081981;28;20449;-66
2023/01/03 10:26:56;;;;;;;8.77;5.70;;;;;;;14.74;52.41;101420.03;5079065;28;20477;-65
2023/01/03 10:29:22;;;;;;;7.67;5.40;;;;;;;13.76;54.69;101414.25;5079862;28;20447;-65
2023/01/03 10:32:06;;;;;;;6.77;5.07;;;;;;;13.21;56.93;101406.38;5091735;28;20515;-65
2023/01/03 10:34:33;;;;;;;9.30;4.90;;;;;;;13.01;58.81;101413.41;5066657;28;20451;-65
2023/01/03 10:37:16;;;;;;;6.37;4.67;;;;;;;14.32;54.78;101400.38;5084612;28;20476;-65
2023/01/03 10:39:43;;;;;;;7.43;4.90;;;;;;;13.60;56.03;101405.84;5074383;28;20523;-65
2023/01/03 10:42:17;;;;;;;8.63;5.73;;;;;;;13.62;57.30;101402.03;5077443;28;20489;-66
2023/01/03 10:44:57;;;;;;;6.53;4.73;;;;;;;13.71;56.74;101397.69;5079705;28;20684;-66
2023/01/03 10:47:25;;;;;;;8.30;5.00;;;;;;;13.33;57.50;101397.31;5078776;28;21010;-65
2023/01/03 10:49:59;;;;;;;9.27;4.50;;;;;;;13.26;57.94;101398.81;5084832;28;20428;-65
2023/01/03 10:52:30;;;;;;;7.57;4.60;;;;;;;13.72;58.58;101383.28;5064793;28;20479;-66
2023/01/03 10:55:00;;;;;;;9.50;4.10;;;;;;;14.02;55.98;101389.63;5079475;28;20530;-65
2023/01/03 10:57:37;;;;;;;9.00;4.60;;;;;;;13.94;55.94;101398.38;5078524;28;20493;-66
2023/01/03 11:00:21;;;;;;;5.97;4.63;;;;;;;13.58;56.51;101387.16;5081013;28;20480;-65
2023/01/03 11:02:49;;;;;;;6.10;4.20;;;;;;;13.13;58.01;101385.53;5081155;28;20465;-65
2023/01/03 11:05:17;;;;;;;6.70;4.30;;;;;;;13.68;57.34;101381.81;5077522;28;20463;-66
2023/01/03 11:07:45;;;;;;;8.73;4.10;;;;;;;12.88;58.99;101392.13;5078836;28;20507;-66
2023/01/03 11:10:17;;;;;;;4.97;4.03;;;;;;;13.89;56.22;101376.44;5090917;28;20441;-65
2023/01/03 11:12:46;;;;;;;5.87;4.20;;;;;;;13.86;55.99;101380.22;5079873;28;20974;-66
2023/01/03 11:15:16;;;;;;;6.87;4.40;;;;;;;13.13;58.25;101380.16;5078744;28;20897;-66
2023/01/03 11:17:53;;;;;;;5.17;4.40;;;;;;;11.57;64.88;101381.13;5085371;28;20504;-66
2023/01/03 11:20:21;;;;;;;8.70;4.30;;;;;;;10.55;70.32;101374.53;5063447;28;20450;-65
2023/01/03 11:22:55;;;;;;;6.17;4.57;;;;;;;9.98;75.17;101376.81;5086470;28;20451;-65
2023/01/03 11:25:35;;;;;;;6.67;4.33;;;;;;;9.77;76.56;101371.16;5076495;28;20445;-65
2023/01/03 11:28:27;;;;;;;6.10;5.23;;;;;;;9.70;77.37;101364.53;5076958;28;20867;-66
2023/01/03 11:30:58;;;;;;;10.23;5.97;;;;;;;9.77;78.69;101364.94;5077292;28;21022;-65
2023/01/03 11:33:43;;;;;;;8.43;5.20;;;;;;;9.58;79.90;101366.25;5076812;28;20456;-65
2023/01/03 11:36:28;;;;;;;8.53;5.47;;;;;;;9.74;79.38;101366.03;5076385;28;20472;-65
2023/01/03 11:39:03;;;;;;;7.27;5.70;;;;;;;9.86;79.58;101366.13;5076960;28;20490;-65
2023/01/03 11:41:47;;;;;;;6.13;5.00;;;;;;;9.42;81.16;101363.75;5056857;28;20512;-65
2023/01/03 11:44:49;;;;;;;8.73;5.40;;;;;;;8.93;83.07;101358.25;5057548;28;20544;-65
2023/01/03 11:47:22;;;;;;;6.87;5.13;;;;;;;9.14;84.40;101359.47;5055087;28;20503;-64
2023/01/03 11:50:01;;;;;;;7.80;5.10;;;;;;;8.83;85.67;101353.53;5056663;28;20480;-65
2023/01/03 11:52:30;;;;;;;7.60;5.90;;;;;;;8.97;85.60;101354.41;5061774;28;20484;-65
2023/01/03 11:55:35;;;;;;;8.40;5.43;;;;;;;9.05;86.20;101360.94;5058674;28;20576;-65
2023/01/03 11:58:19;;;;;;;7.23;5.30;;;;;;;9.15;85.58;101352.31;5046420;28;20473;-65
2023/01/03 12:00:50;;;;;;;6.67;4.80;;;;;;;9.35;84.97;101348.28;5058446;28;20468;-64
2023/01/03 12:03:24;;;;;;;7.03;5.27;;;;;;;9.53;85.18;101347.03;5058944;28;20484;-64
2023/01/03 12:05:55;;;;;;;8.80;5.10;;;;;;;9.48;84.88;101349.16;5057624;28;20484;-65
2023/01/03 12:08:42;;;;;;;9.17;5.13;;;;;;;9.70;83.79;101355.66;5049030;28;20457;-65
2023/01/03 12:11:17;;;;;;;7.37;4.77;;;;;;;9.57;85.01;101351.19;5058605;28;20485;-64
2023/01/03 12:13:49;;;;;;;7.50;4.20;;;;;;;9.92;82.72;101353.19;5059152;28;20491;-65
2023/01/03 12:16:22;;;;;;;9.37;5.20;;;;;;;9.92;82.73;101347.84;5059357;28;20481;-65
2023/01/03 12:18:54;;;;;;;12.20;5.37;;;;;;;9.58;84.16;101346.69;5058663;28;20454;-65
2023/01/03 12:21:30;;;;;;;7.40;4.87;;;;;;;9.58;84.03;101339.56;5048899;28;20506;-65
2023/01/03 12:24:01;;;;;;;9.53;5.10;;;;;;;9.69;84.06;101330.78;5053854;28;21016;-65